createdAt,value
2023-01-08T00:01:09.530Z,11.00
2023-01-08T00:03:39.875Z,14.75
2023-01-08T00:06:11.255Z,13.25
2023-01-08T00:08:38.330Z,15.75
2023-01-08T00:11:05.828Z,17.75
2023-01-08T00:13:32.813Z,12.25
2023-01-08T00:16:04.553Z,12.75
2023-01-08T00:18:32.075Z,13.00
2023-01-08T00:21:01.042Z,14.25
2023-01-08T00:23:28.220Z,12.75
2023-01-08T00:25:55.228Z,17.00
2023-01-08T00:28:22.135Z,16.50
2023-01-08T00:30:49.241Z,12.00
2023-01-08T00:33:16.321Z,13.25
2023-01-08T00:35:43.377Z,13.25
2023-01-08T00:38:12.024Z,13.00
2023-01-08T00:40:38.897Z,15.75
2023-01-08T00:43:07.254Z,16.50
2023-01-08T00:45:34.678Z,18.50
2023-01-08T00:48:01.590Z,15.25
2023-01-08T00:50:28.653Z,12.00
2023-01-08T00:52:55.495Z,10.75
2023-01-08T00:55:23.649Z,13.75
2023-01-08T00:57:50.391Z,14.75
2023-01-08T01:00:17.771Z,15.25
2023-01-08T01:02:45.670Z,15.50
2023-01-08T01:05:14.071Z,18.75
2023-01-08T01:07:41.333Z,22.25
2023-01-08T01:10:09.869Z,35.50
2023-01-08T01:12:39.257Z,38.00
2023-01-08T01:15:09.397Z,23.00
2023-01-08T01:17:39.505Z,21.25
2023-01-08T01:20:10.047Z,16.25
2023-01-08T01:22:37.724Z,16.00
2023-01-08T01:25:06.329Z,12.75
2023-01-08T01:27:33.325Z,15.50
2023-01-08T01:30:02.591Z,14.00
2023-01-08T01:32:29.543Z,11.75
2023-01-08T01:34:56.575Z,10.00
2023-01-08T01:37:23.340Z,15.00
2023-01-08T01:39:50.186Z,8.00
2023-01-08T01:42:20.033Z,12.00
2023-01-08T01:44:47.890Z,10.75
2023-01-08T01:47:25.614Z,10.00
2023-01-08T01:50:02.243Z,10.75
2023-01-08T01:52:35.096Z,10.50
2023-01-08T01:55:07.751Z,11.75
2023-01-08T01:57:34.659Z,9.00
2023-01-08T02:00:08.078Z,13.25
2023-01-08T02:02:43.894Z,14.25
2023-01-08T02:05:10.976Z,12.50
2023-01-08T02:07:50.756Z,14.00
2023-01-08T02:10:32.052Z,13.00
2023-01-08T02:13:08.232Z,15.25
2023-01-08T02:15:47.604Z,14.75
2023-01-08T02:18:24.029Z,12.75
2023-01-08T02:21:01.419Z,11.50
2023-01-08T02:23:42.408Z,13.50
2023-01-08T02:26:21.924Z,11.00
2023-01-08T02:28:57.629Z,11.25
2023-01-08T02:31:29.482Z,11.50
2023-01-08T02:33:56.755Z,11.75
2023-01-08T02:36:35.588Z,10.75
2023-01-08T02:39:34.370Z,14.75
2023-01-08T02:42:19.704Z,11.75
2023-01-08T02:45:01.576Z,9.00
2023-01-08T02:47:35.248Z,9.00
2023-01-08T02:50:15.330Z,11.25
2023-01-08T02:52:53.857Z,12.00
2023-01-08T02:55:25.180Z,12.00
2023-01-08T02:57:53.992Z,5.75
2023-01-08T03:00:22.265Z,13.75
2023-01-08T03:02:58.140Z,13.25
2023-01-08T03:05:28.470Z,14.25
2023-01-08T03:07:56.072Z,14.75
2023-01-08T03:10:28.733Z,12.00
2023-01-08T03:13:05.287Z,7.75
2023-01-08T03:15:42.600Z,14.50
2023-01-08T03:18:18.287Z,16.00
2023-01-08T03:20:48.589Z,14.75
2023-01-08T03:23:19.560Z,14.25
2023-01-08T03:25:47.730Z,11.50
2023-01-08T03:28:22.930Z,9.75
2023-01-08T03:30:53.293Z,13.00
2023-01-08T03:33:24.010Z,10.00
2023-01-08T03:35:57.003Z,13.25
2023-01-08T03:38:29.351Z,12.50
2023-01-08T03:41:04.480Z,11.25
2023-01-08T03:43:33.164Z,12.00
2023-01-08T03:46:07.851Z,11.00
2023-01-08T03:48:37.763Z,11.50
2023-01-08T03:51:08.906Z,9.25
2023-01-08T03:53:36.077Z,12.25
2023-01-08T03:56:03.027Z,10.25
2023-01-08T03:58:29.900Z,12.75
2023-01-08T04:00:58.048Z,11.50
2023-01-08T04:03:25.944Z,10.75
2023-01-08T04:05:52.762Z,11.50
2023-01-08T04:08:19.523Z,9.50
2023-01-08T04:10:46.607Z,9.25
2023-01-08T04:13:13.583Z,9.00
2023-01-08T04:15:40.445Z,12.50
2023-01-08T04:18:08.665Z,11.00
2023-01-08T04:20:35.425Z,13.00
2023-01-08T04:23:02.233Z,14.25
2023-01-08T04:25:29.067Z,13.25
2023-01-08T04:27:55.927Z,11.75
2023-01-08T04:30:22.782Z,14.50
2023-01-08T04:32:49.745Z,12.25
2023-01-08T04:35:18.163Z,9.25
2023-01-08T04:37:45.323Z,11.25
2023-01-08T04:40:12.294Z,10.75
2023-01-08T04:42:39.340Z,8.75
2023-01-08T04:45:08.259Z,11.00
2023-01-08T04:47:35.314Z,11.50
2023-01-08T04:50:02.199Z,10.75
2023-01-08T04:52:30.595Z,11.25
2023-01-08T04:54:57.419Z,8.00
2023-01-08T04:57:24.636Z,12.25
2023-01-08T04:59:51.438Z,16.50
2023-01-08T05:02:19.481Z,11.75
2023-01-08T05:04:48.032Z,13.75
2023-01-08T05:07:15.101Z,11.25
2023-01-08T05:09:43.256Z,10.50
2023-01-08T05:12:10.037Z,12.00
2023-01-08T05:14:36.850Z,12.75
2023-01-08T05:17:03.746Z,15.00
2023-01-08T05:19:30.590Z,17.50
2023-01-08T05:21:57.674Z,14.25
2023-01-08T05:24:24.595Z,12.50
2023-01-08T05:26:52.814Z,12.00
2023-01-08T05:29:19.831Z,12.25
2023-01-08T05:31:46.751Z,14.00
2023-01-08T05:34:13.623Z,15.50
2023-01-08T05:36:40.526Z,10.75
2023-01-08T05:39:07.351Z,17.25
2023-01-08T05:41:34.250Z,17.00
2023-01-08T05:44:02.711Z,11.25
2023-01-08T05:46:29.685Z,18.25
2023-01-08T05:48:57.962Z,15.00
2023-01-08T05:51:24.835Z,13.50
2023-01-08T05:53:51.658Z,16.50
2023-01-08T05:56:18.691Z,14.00
2023-01-08T05:58:45.532Z,13.50
2023-01-08T06:01:15.670Z,14.25
2023-01-08T06:03:42.938Z,15.75
2023-01-08T06:06:11.687Z,14.00
2023-01-08T06:08:39.232Z,12.75
2023-01-08T06:11:08.867Z,10.25
2023-01-08T06:13:36.422Z,8.25
2023-01-08T06:16:04.353Z,8.00
2023-01-08T06:18:32.608Z,5.00
2023-01-08T06:20:59.621Z,7.25
2023-01-08T06:23:26.504Z,7.50
2023-01-08T06:25:54.196Z,9.00
2023-01-08T06:28:21.899Z,6.75
2023-01-08T06:30:48.980Z,7.75
2023-01-08T06:33:16.887Z,6.25
2023-01-08T06:35:45.309Z,3.75
2023-01-08T06:38:12.437Z,6.50
2023-01-08T06:40:39.248Z,5.50
2023-01-08T06:43:06.275Z,5.25
2023-01-08T06:45:33.321Z,4.00
2023-01-08T06:48:01.500Z,2.50
2023-01-08T06:50:28.380Z,3.50
2023-01-08T06:52:57.069Z,3.75
2023-01-08T06:55:24.802Z,5.00
2023-01-08T06:57:54.615Z,4.00
2023-01-08T07:00:22.131Z,5.25
2023-01-08T07:02:49.573Z,5.75
2023-01-08T07:05:16.729Z,6.75
2023-01-08T07:07:44.381Z,5.25
2023-01-08T07:10:12.685Z,4.25
2023-01-08T07:12:39.745Z,1.50
2023-01-08T07:15:08.199Z,3.25
2023-01-08T07:17:35.267Z,1.25
2023-01-08T07:20:02.174Z,2.00
2023-01-08T07:22:29.077Z,2.00
2023-01-08T07:24:55.914Z,2.25
2023-01-08T07:27:24.434Z,1.25
2023-01-08T07:29:51.148Z,2.25
2023-01-08T07:32:18.144Z,2.00
2023-01-08T07:34:44.951Z,4.50
2023-01-08T07:37:12.226Z,2.50
2023-01-08T07:39:39.043Z,2.00
2023-01-08T07:42:06.233Z,2.00
2023-01-08T07:44:34.978Z,2.50
2023-01-08T07:47:01.819Z,1.00
2023-01-08T07:49:28.592Z,1.50
2023-01-08T07:51:55.381Z,3.50
2023-01-08T07:54:22.285Z,2.25
2023-01-08T07:56:49.053Z,2.00
2023-01-08T07:59:15.796Z,3.00
2023-01-08T08:01:44.081Z,3.50
2023-01-08T08:04:10.911Z,3.25
2023-01-08T08:06:37.765Z,1.00
2023-01-08T08:09:05.049Z,3.00
2023-01-08T08:11:31.947Z,2.00
2023-01-08T08:13:58.715Z,1.00
2023-01-08T08:16:25.626Z,1.75
2023-01-08T08:18:53.993Z,1.25
2023-01-08T08:21:20.987Z,1.25
2023-01-08T08:23:47.737Z,3.00
2023-01-08T08:26:14.720Z,2.00
2023-01-08T08:28:41.721Z,1.00
2023-01-08T08:31:08.706Z,1.00
2023-01-08T08:33:35.623Z,1.25
2023-01-08T08:36:04.462Z,1.00
2023-01-08T08:38:31.491Z,1.00
2023-01-08T08:40:58.319Z,1.00
2023-01-08T08:43:25.181Z,1.75
2023-01-08T08:45:52.163Z,2.75
2023-01-08T08:48:19.056Z,0.00
2023-01-08T08:50:46.078Z,2.25
2023-01-08T08:53:14.267Z,2.00
2023-01-08T08:55:41.124Z,2.50
2023-01-08T08:58:11.790Z,1.00
2023-01-08T09:00:40.489Z,1.50
2023-01-08T09:03:12.189Z,0.00
2023-01-08T09:05:39.148Z,1.00
2023-01-08T09:08:06.763Z,1.00
2023-01-08T09:10:37.065Z,1.00
2023-01-08T09:13:04.211Z,0.50
2023-01-08T09:15:31.049Z,0.75
2023-01-08T09:17:58.472Z,2.00
2023-01-08T09:20:27.180Z,1.75
2023-01-08T09:22:54.290Z,1.00
2023-01-08T09:25:21.355Z,1.00
2023-01-08T09:27:49.701Z,1.00
2023-01-08T09:30:16.676Z,1.75
2023-01-08T09:32:43.747Z,1.00
2023-01-08T09:35:10.483Z,3.00
2023-01-08T09:37:37.494Z,1.25
2023-01-08T09:40:05.641Z,1.50
2023-01-08T09:42:34.244Z,1.00
2023-01-08T09:45:05.104Z,1.25
2023-01-08T09:47:38.536Z,2.00
2023-01-08T09:50:13.613Z,0.25
2023-01-08T09:52:43.475Z,1.00
2023-01-08T09:55:14.247Z,1.00
2023-01-08T09:57:41.543Z,2.50
2023-01-08T10:00:16.466Z,1.00
2023-01-08T10:02:44.466Z,0.00
2023-01-08T10:05:14.883Z,0.00
2023-01-08T10:07:42.131Z,2.25
2023-01-08T10:10:19.621Z,2.00
2023-01-08T10:12:48.787Z,2.00
2023-01-08T10:15:20.392Z,1.00
2023-01-08T10:17:56.341Z,4.50
2023-01-08T10:20:25.759Z,2.00
2023-01-08T10:22:54.528Z,1.00
2023-01-08T10:25:24.754Z,1.00
2023-01-08T10:27:57.101Z,1.00
2023-01-08T10:30:37.450Z,1.00
2023-01-08T10:33:09.998Z,2.00
2023-01-08T10:35:41.334Z,1.00
2023-01-08T10:38:27.566Z,0.00
2023-01-08T10:40:56.273Z,1.00
2023-01-08T10:43:31.172Z,1.00
2023-01-08T10:46:04.807Z,1.00
2023-01-08T10:48:36.945Z,2.00
2023-01-08T10:51:16.879Z,3.00
2023-01-08T10:54:00.418Z,2.00
2023-01-08T10:57:00.623Z,2.00
2023-01-08T10:59:55.027Z,2.00
2023-01-08T11:02:40.930Z,3.25
2023-01-08T11:05:15.529Z,2.00
2023-01-08T11:08:09.641Z,2.50
2023-01-08T11:10:55.534Z,6.00
2023-01-08T11:13:28.518Z,7.00
2023-01-08T11:16:10.471Z,5.75
2023-01-08T11:19:01.964Z,4.50
2023-01-08T11:21:57.664Z,3.25
2023-01-08T11:24:46.234Z,9.75
2023-01-08T11:27:34.837Z,10.50
2023-01-08T11:30:24.242Z,4.75
2023-01-08T11:33:05.064Z,5.25
2023-01-08T11:35:55.815Z,4.25
2023-01-08T11:38:32.783Z,3.00
2023-01-08T11:41:35.713Z,4.75
2023-01-08T11:44:32.944Z,4.00
2023-01-08T11:47:45.073Z,9.00
2023-01-08T11:50:31.971Z,7.25
2023-01-08T11:53:31.265Z,6.00
2023-01-08T11:56:21.066Z,2.75
2023-01-08T11:59:28.856Z,3.75
2023-01-08T12:02:20.019Z,2.50
2023-01-08T12:05:42.714Z,2.25
2023-01-08T12:08:29.811Z,2.00
2023-01-08T12:11:16.736Z,2.00
2023-01-08T12:14:22.403Z,1.50
2023-01-08T12:17:44.416Z,1.25
2023-01-08T12:20:36.641Z,1.00
2023-01-08T12:23:55.928Z,1.00
2023-01-08T12:26:53.237Z,4.00
2023-01-08T12:30:03.226Z,1.00
2023-01-08T12:32:48.337Z,2.00
2023-01-08T12:35:37.041Z,5.75
2023-01-08T12:38:25.711Z,5.25
2023-01-08T12:41:00.751Z,2.50
2023-01-08T12:43:32.993Z,0.00
2023-01-08T12:46:03.634Z,3.00
2023-01-08T12:48:35.074Z,2.75
2023-01-08T12:51:10.576Z,4.00
2023-01-08T12:53:53.900Z,2.50
2023-01-08T12:56:35.699Z,0.00
2023-01-08T12:59:37.486Z,2.50
2023-01-08T13:02:36.437Z,0.50
2023-01-08T13:05:30.017Z,0.75
2023-01-08T13:08:00.250Z,1.00
2023-01-08T13:10:36.668Z,1.50
2023-01-08T13:13:07.881Z,2.25
2023-01-08T13:15:36.166Z,1.00
2023-01-08T13:18:16.820Z,0.50
2023-01-08T13:20:57.155Z,1.00
2023-01-08T13:23:27.769Z,1.00
2023-01-08T13:25:57.313Z,1.00
2023-01-08T13:28:42.636Z,1.50
2023-01-08T13:31:26.395Z,0.00
2023-01-08T13:33:54.333Z,0.00
2023-01-08T13:36:25.364Z,1.00
2023-01-08T13:39:21.908Z,0.50
2023-01-08T13:42:03.276Z,0.00
2023-01-08T13:44:35.354Z,2.00
2023-01-08T13:47:07.941Z,0.00
2023-01-08T13:49:42.384Z,0.67
2023-01-08T13:52:31.298Z,1.00
2023-01-08T13:55:01.799Z,0.00
2023-01-08T13:57:39.211Z,1.00
2023-01-08T14:00:18.973Z,1.00
2023-01-08T14:02:46.461Z,1.00
2023-01-08T14:05:24.364Z,2.00
2023-01-08T14:07:51.658Z,1.75
2023-01-08T14:10:19.904Z,0.00
2023-01-08T14:12:48.427Z,1.00
2023-01-08T14:15:29.413Z,1.00
2023-01-08T14:17:57.625Z,0.50
2023-01-08T14:20:32.461Z,1.00
2023-01-08T14:23:01.232Z,2.00
2023-01-08T14:25:29.657Z,1.00
2023-01-08T14:28:02.672Z,0.00
2023-01-08T14:30:32.029Z,0.33
2023-01-08T14:33:01.071Z,1.33
2023-01-08T14:35:35.073Z,1.00
2023-01-08T14:38:03.334Z,0.00
2023-01-08T14:40:35.680Z,0.00
2023-01-08T14:43:11.157Z,1.00
2023-01-08T14:45:47.394Z,1.33
2023-01-08T14:48:22.624Z,3.75
2023-01-08T14:51:04.466Z,1.67
2023-01-08T14:53:36.300Z,0.67
2023-01-08T14:56:06.627Z,0.33
2023-01-08T14:58:38.528Z,0.00
2023-01-08T15:01:15.996Z,0.33
2023-01-08T15:03:45.615Z,0.00
2023-01-08T15:06:24.583Z,1.00
2023-01-08T15:08:51.810Z,1.00
2023-01-08T15:11:23.643Z,1.00
2023-01-08T15:13:57.225Z,1.00
2023-01-08T15:16:33.752Z,0.00
2023-01-08T15:19:07.285Z,0.00
2023-01-08T15:21:35.667Z,0.00
2023-01-08T15:24:06.336Z,0.00
2023-01-08T15:26:33.683Z,0.00
2023-01-08T15:29:05.236Z,0.67
2023-01-08T15:31:46.717Z,1.00
2023-01-08T15:34:14.151Z,1.00
2023-01-08T15:36:41.042Z,2.75
2023-01-08T15:39:07.854Z,4.00
2023-01-08T15:41:36.988Z,2.00
2023-01-08T15:44:04.330Z,2.25
2023-01-08T15:46:32.538Z,3.00
2023-01-08T15:48:59.379Z,5.00
2023-01-08T15:51:29.914Z,1.00
2023-01-08T15:53:56.863Z,2.00
2023-01-08T15:56:24.019Z,3.75
2023-01-08T15:58:50.802Z,2.75
2023-01-08T16:01:18.046Z,2.00
2023-01-08T16:03:46.657Z,4.25
2023-01-08T16:06:13.406Z,1.00
2023-01-08T16:08:40.213Z,3.25
2023-01-08T16:11:07.049Z,1.00
2023-01-08T16:13:34.027Z,2.00
2023-01-08T16:16:06.973Z,2.33
2023-01-08T16:18:33.799Z,1.00
2023-01-08T16:21:02.503Z,1.00
2023-01-08T16:23:29.619Z,1.75
2023-01-08T16:25:56.729Z,2.25
2023-01-08T16:28:23.714Z,5.00
2023-01-08T16:30:50.940Z,7.25
2023-01-08T16:33:17.771Z,9.75
2023-01-08T16:35:44.580Z,6.25
2023-01-08T16:38:13.852Z,4.75
2023-01-08T16:40:40.983Z,4.50
2023-01-08T16:43:11.505Z,3.50
2023-01-08T16:45:46.007Z,2.00
2023-01-08T16:48:13.643Z,3.00
2023-01-08T16:50:40.687Z,6.00
2023-01-08T16:53:08.072Z,1.50
2023-01-08T16:55:38.159Z,1.00
2023-01-08T16:58:05.711Z,1.50
2023-01-08T17:00:33.058Z,2.50
2023-01-08T17:03:01.497Z,4.25
2023-01-08T17:05:29.148Z,4.25
2023-01-08T17:07:56.561Z,6.00
2023-01-08T17:10:25.946Z,1.25
2023-01-08T17:12:54.188Z,3.00
2023-01-08T17:15:21.137Z,6.00
2023-01-08T17:17:47.925Z,4.00
2023-01-08T17:20:15.224Z,6.75
2023-01-08T17:22:42.379Z,4.00
2023-01-08T17:25:09.748Z,2.00
2023-01-08T17:27:37.004Z,6.50
2023-01-08T17:30:08.350Z,12.25
2023-01-08T17:32:35.591Z,11.25
2023-01-08T17:35:02.444Z,7.75
2023-01-08T17:37:30.377Z,6.00
2023-01-08T17:39:57.350Z,10.00
2023-01-08T17:42:24.349Z,34.00
2023-01-08T17:44:51.633Z,30.25
2023-01-08T17:47:19.817Z,36.75
2023-01-08T17:49:49.217Z,20.50
2023-01-08T17:52:16.067Z,11.00
2023-01-08T17:54:42.922Z,28.50
2023-01-08T17:57:10.433Z,9.00
2023-01-08T17:59:37.264Z,6.50
2023-01-08T18:02:04.508Z,9.50
2023-01-08T18:04:32.901Z,1.75
2023-01-08T18:06:59.979Z,2.25
2023-01-08T18:09:26.869Z,2.00
2023-01-08T18:11:53.906Z,2.75
2023-01-08T18:14:21.511Z,0.00
2023-01-08T18:16:52.276Z,2.00
2023-01-08T18:19:21.198Z,2.75
2023-01-08T18:21:51.255Z,4.00
2023-01-08T18:24:21.316Z,4.00
2023-01-08T18:26:54.872Z,1.00
2023-01-08T18:29:24.363Z,3.00
2023-01-08T18:31:54.738Z,3.25
2023-01-08T18:34:23.541Z,18.00
2023-01-08T18:36:57.005Z,16.50
2023-01-08T18:39:25.105Z,24.75
2023-01-08T18:41:52.103Z,19.50
2023-01-08T18:44:19.107Z,6.75
2023-01-08T18:46:47.998Z,3.75
2023-01-08T18:49:15.499Z,3.00
2023-01-08T18:51:42.872Z,3.00
2023-01-08T18:54:11.032Z,3.75
2023-01-08T18:56:38.268Z,5.25
2023-01-08T18:59:06.818Z,5.00
2023-01-08T19:01:35.268Z,4.00
2023-01-08T19:04:03.136Z,8.75
2023-01-08T19:06:30.004Z,5.50
2023-01-08T19:08:58.194Z,4.50
2023-01-08T19:11:26.631Z,3.50
2023-01-08T19:13:54.915Z,5.25
2023-01-08T19:16:21.858Z,5.00
2023-01-08T19:18:49.225Z,5.50
2023-01-08T19:21:16.216Z,8.75
2023-01-08T19:23:43.127Z,7.75
2023-01-08T19:26:10.739Z,8.25
2023-01-08T19:28:38.897Z,5.25
2023-01-08T19:31:06.218Z,10.50
2023-01-08T19:33:33.051Z,12.25
2023-01-08T19:36:01.315Z,12.25
2023-01-08T19:38:28.661Z,9.00
2023-01-08T19:40:57.730Z,9.00
2023-01-08T19:43:24.875Z,6.50
2023-01-08T19:45:53.164Z,5.25
2023-01-08T19:48:20.113Z,1.75
2023-01-08T19:50:47.207Z,4.75
2023-01-08T19:53:14.714Z,4.25
2023-01-08T19:55:41.594Z,5.50
2023-01-08T19:58:08.578Z,6.75
2023-01-08T20:00:35.354Z,5.75
2023-01-08T20:03:04.233Z,7.50
2023-01-08T20:05:31.118Z,6.25
2023-01-08T20:07:58.316Z,6.00
2023-01-08T20:10:25.194Z,5.25
2023-01-08T20:12:52.238Z,5.00
2023-01-08T20:15:19.086Z,6.25
2023-01-08T20:17:46.151Z,5.00
2023-01-08T20:20:14.403Z,6.00
2023-01-08T20:22:41.231Z,10.25
2023-01-08T20:25:08.865Z,8.75
2023-01-08T20:27:37.455Z,8.25
2023-01-08T20:30:05.339Z,7.50
2023-01-08T20:32:32.610Z,6.50
2023-01-08T20:34:59.736Z,9.00
2023-01-08T20:37:27.983Z,7.00
2023-01-08T20:39:55.500Z,3.50
2023-01-08T20:42:33.428Z,5.25
2023-01-08T20:45:01.120Z,6.75
2023-01-08T20:47:27.937Z,9.00
2023-01-08T20:49:54.915Z,7.50
2023-01-08T20:52:21.733Z,8.50
2023-01-08T20:54:51.081Z,3.75
2023-01-08T20:57:17.991Z,8.75
2023-01-08T20:59:45.010Z,11.25
2023-01-08T21:02:11.996Z,8.00
2023-01-08T21:04:39.152Z,12.50
2023-01-08T21:07:05.965Z,10.25
2023-01-08T21:09:32.881Z,9.25
2023-01-08T21:12:01.357Z,10.50
2023-01-08T21:14:28.186Z,9.25
2023-01-08T21:16:55.136Z,2.75
2023-01-08T21:19:22.062Z,8.50
2023-01-08T21:21:49.242Z,8.25
2023-01-08T21:24:16.068Z,7.00
2023-01-08T21:26:45.718Z,6.50
2023-01-08T21:29:14.890Z,8.50
2023-01-08T21:31:41.692Z,10.00
2023-01-08T21:34:09.846Z,9.75
2023-01-08T21:36:37.437Z,8.00
2023-01-08T21:39:05.001Z,6.25
2023-01-08T21:41:31.814Z,6.25
2023-01-08T21:43:59.437Z,6.50
2023-01-08T21:46:28.311Z,8.00
2023-01-08T21:48:55.279Z,9.50
2023-01-08T21:51:22.122Z,8.00
2023-01-08T21:53:49.120Z,8.00
2023-01-08T21:56:16.414Z,9.75
2023-01-08T21:58:43.366Z,8.50
2023-01-08T22:01:10.471Z,8.75
2023-01-08T22:03:38.978Z,6.50
2023-01-08T22:06:07.084Z,10.75
2023-01-08T22:08:34.461Z,8.00
2023-01-08T22:11:06.974Z,5.25
2023-01-08T22:13:35.165Z,11.00
2023-01-08T22:16:04.563Z,8.50
2023-01-08T22:18:32.220Z,4.50
2023-01-08T22:21:01.912Z,10.00
2023-01-08T22:23:29.756Z,6.75
2023-01-08T22:25:56.752Z,6.75
2023-01-08T22:28:24.608Z,12.25
2023-01-08T22:30:52.398Z,11.50
2023-01-08T22:33:19.229Z,11.50
2023-01-08T22:35:46.222Z,9.50
2023-01-08T22:38:14.448Z,9.50
2023-01-08T22:40:41.264Z,9.25
2023-01-08T22:43:08.082Z,11.25
2023-01-08T22:45:34.956Z,8.50
2023-01-08T22:48:01.875Z,11.25
2023-01-08T22:50:28.680Z,10.00
2023-01-08T22:52:55.850Z,7.25
2023-01-08T22:55:24.020Z,10.00
2023-01-08T22:57:50.803Z,3.75
2023-01-08T23:00:18.812Z,4.00
2023-01-08T23:02:46.009Z,7.25
2023-01-08T23:05:12.980Z,6.75
2023-01-08T23:07:39.933Z,8.50
2023-01-08T23:10:07.688Z,6.75
2023-01-08T23:12:36.035Z,5.50
2023-01-08T23:15:03.433Z,8.25
2023-01-08T23:17:30.323Z,6.25
2023-01-08T23:19:57.291Z,7.50
2023-01-08T23:22:24.318Z,8.75
2023-01-08T23:24:51.432Z,7.75
2023-01-08T23:27:18.521Z,7.25
2023-01-08T23:29:46.633Z,6.25
2023-01-08T23:32:14.141Z,8.00
2023-01-08T23:34:41.255Z,7.00
2023-01-08T23:37:08.085Z,6.00
2023-01-08T23:39:34.963Z,5.75
2023-01-08T23:42:01.783Z,5.50
2023-01-08T23:44:28.649Z,7.25
2023-01-08T23:46:56.836Z,8.25
2023-01-08T23:49:23.969Z,7.75
2023-01-08T23:51:50.870Z,7.25
2023-01-08T23:54:17.799Z,8.50
2023-01-08T23:56:45.011Z,8.00
2023-01-08T23:59:12.191Z,8.25
